sensor_id;sensor_type;location;lat;lon;timestamp;temperature;humidity
11700;DHT22;5906;51.660;6.674;2023-02-17T00:03:41;10.50;99.90
11700;DHT22;5906;51.660;6.674;2023-02-17T00:06:10;10.50;99.90
11700;DHT22;5906;51.660;6.674;2023-02-17T00:08:37;10.50;99.90
11700;DHT22;5906;51.660;6.674;2023-02-17T00:11:04;10.50;99.90
11700;DHT22;5906;51.660;6.674;2023-02-17T00:13:32;10.50;99.90
11700;DHT22;5906;51.660;6.674;2023-02-17T00:16:06;10.50;99.90
11700;DHT22;5906;51.660;6.674;2023-02-17T00:18:34;10.50;99.90
11700;DHT22;5906;51.660;6.674;2023-02-17T00:21:10;10.40;99.90
11700;DHT22;5906;51.660;6.674;2023-02-17T00:23:37;10.40;99.90
11700;DHT22;5906;51.660;6.674;2023-02-17T00:26:06;10.50;99.90
11700;DHT22;5906;51.660;6.674;2023-02-17T00:28:34;10.50;99.90
11700;DHT22;5906;51.660;6.674;2023-02-17T00:31:10;10.50;99.90
11700;DHT22;5906;51.660;6.674;2023-02-17T00:33:37;10.50;99.90
11700;DHT22;5906;51.660;6.674;2023-02-17T00:36:14;10.50;99.90
11700;DHT22;5906;51.660;6.674;2023-02-17T00:38:43;10.50;99.90
11700;DHT22;5906;51.660;6.674;2023-02-17T00:41:10;10.40;99.90
11700;DHT22;5906;51.660;6.674;2023-02-17T00:43:37;10.40;99.90
11700;DHT22;5906;51.660;6.674;2023-02-17T00:46:05;10.40;99.90
11700;DHT22;5906;51.660;6.674;2023-02-17T00:48:33;10.40;99.90
11700;DHT22;5906;51.660;6.674;2023-02-17T00:51:00;10.30;99.90
11700;DHT22;5906;51.660;6.674;2023-02-17T00:53:27;10.40;99.90
11700;DHT22;5906;51.660;6.674;2023-02-17T00:55:55;10.40;99.90
11700;DHT22;5906;51.660;6.674;2023-02-17T00:58:22;10.40;99.90
11700;DHT22;5906;51.660;6.674;2023-02-17T01:00:49;10.50;99.90
11700;DHT22;5906;51.660;6.674;2023-02-17T01:03:17;10.50;99.90
11700;DHT22;5906;51.660;6.674;2023-02-17T01:05:46;10.50;99.90
11700;DHT22;5906;51.660;6.674;2023-02-17T01:08:15;10.40;99.90
11700;DHT22;5906;51.660;6.674;2023-02-17T01:10:44;10.50;99.90
11700;DHT22;5906;51.660;6.674;2023-02-17T01:13:13;10.50;99.90
11700;DHT22;5906;51.660;6.674;2023-02-17T01:15:43;10.50;99.90
11700;DHT22;5906;51.660;6.674;2023-02-17T01:18:11;10.40;99.90
11700;DHT22;5906;51.660;6.674;2023-02-17T01:20:39;10.50;99.90
11700;DHT22;5906;51.660;6.674;2023-02-17T01:23:07;10.50;99.90
11700;DHT22;5906;51.660;6.674;2023-02-17T01:25:39;10.40;99.90
11700;DHT22;5906;51.660;6.674;2023-02-17T01:28:08;10.40;99.90
11700;DHT22;5906;51.660;6.674;2023-02-17T01:30:37;10.40;99.90
11700;DHT22;5906;51.660;6.674;2023-02-17T01:33:04;10.40;99.90
11700;DHT22;5906;51.660;6.674;2023-02-17T01:35:32;10.40;99.90
11700;DHT22;5906;51.660;6.674;2023-02-17T01:38:00;10.40;99.90
11700;DHT22;5906;51.660;6.674;2023-02-17T01:40:27;10.40;99.90
11700;DHT22;5906;51.660;6.674;2023-02-17T01:42:54;10.40;99.90
11700;DHT22;5906;51.660;6.674;2023-02-17T01:47:58;10.50;99.90
11700;DHT22;5906;51.660;6.674;2023-02-17T01:51:15;10.50;99.90
11700;DHT22;5906;51.660;6.674;2023-02-17T01:53:22;10.40;99.90
11700;DHT22;5906;51.660;6.674;2023-02-17T01:55:51;10.40;99.90
11700;DHT22;5906;51.660;6.674;2023-02-17T01:58:20;10.40;99.90
11700;DHT22;5906;51.660;6.674;2023-02-17T02:00:50;10.40;99.90
11700;DHT22;5906;51.660;6.674;2023-02-17T02:03:18;10.50;99.90
11700;DHT22;5906;51.660;6.674;2023-02-17T02:05:46;10.50;99.90
11700;DHT22;5906;51.660;6.674;2023-02-17T02:08:14;10.50;99.90
11700;DHT22;5906;51.660;6.674;2023-02-17T02:10:41;10.50;99.90
11700;DHT22;5906;51.660;6.674;2023-02-17T02:13:08;10.50;99.90
11700;DHT22;5906;51.660;6.674;2023-02-17T02:16:00;10.50;99.90
11700;DHT22;5906;51.660;6.674;2023-02-17T02:18:38;10.50;99.90
11700;DHT22;5906;51.660;6.674;2023-02-17T02:37:57;10.60;99.90
11700;DHT22;5906;51.660;6.674;2023-02-17T02:40:30;10.60;99.90
11700;DHT22;5906;51.660;6.674;2023-02-17T02:43:00;10.60;99.90
11700;DHT22;5906;51.660;6.674;2023-02-17T02:45:28;10.50;99.90
11700;DHT22;5906;51.660;6.674;2023-02-17T02:47:56;10.50;99.90
11700;DHT22;5906;51.660;6.674;2023-02-17T03:04:32;10.70;99.90
11700;DHT22;5906;51.660;6.674;2023-02-17T03:07:10;10.60;99.90
11700;DHT22;5906;51.660;6.674;2023-02-17T03:09:38;10.70;99.90
11700;DHT22;5906;51.660;6.674;2023-02-17T03:12:05;10.60;99.90
11700;DHT22;5906;51.660;6.674;2023-02-17T03:14:36;10.60;99.90
11700;DHT22;5906;51.660;6.674;2023-02-17T03:17:04;10.70;99.90
11700;DHT22;5906;51.660;6.674;2023-02-17T03:19:31;10.70;99.90
11700;DHT22;5906;51.660;6.674;2023-02-17T03:22:08;10.70;99.90
11700;DHT22;5906;51.660;6.674;2023-02-17T03:24:36;10.70;99.90
11700;DHT22;5906;51.660;6.674;2023-02-17T03:27:03;10.70;99.90
11700;DHT22;5906;51.660;6.674;2023-02-17T03:29:30;10.70;99.90
11700;DHT22;5906;51.660;6.674;2023-02-17T03:31:58;10.70;99.90
11700;DHT22;5906;51.660;6.674;2023-02-17T03:34:25;10.70;99.90
11700;DHT22;5906;51.660;6.674;2023-02-17T03:36:52;10.60;99.90
11700;DHT22;5906;51.660;6.674;2023-02-17T03:39:19;10.70;99.90
11700;DHT22;5906;51.660;6.674;2023-02-17T03:41:46;10.70;99.90
11700;DHT22;5906;51.660;6.674;2023-02-17T03:44:18;10.70;99.90
11700;DHT22;5906;51.660;6.674;2023-02-17T03:46:45;10.60;99.90
11700;DHT22;5906;51.660;6.674;2023-02-17T03:49:12;10.60;99.90
11700;DHT22;5906;51.660;6.674;2023-02-17T03:51:39;10.60;99.90
11700;DHT22;5906;51.660;6.674;2023-02-17T03:54:07;10.70;99.90
11700;DHT22;5906;51.660;6.674;2023-02-17T03:56:34;10.70;99.90
11700;DHT22;5906;51.660;6.674;2023-02-17T03:59:01;10.70;99.90
11700;DHT22;5906;51.660;6.674;2023-02-17T04:01:28;10.70;99.90
11700;DHT22;5906;51.660;6.674;2023-02-17T04:03:55;10.70;99.90
11700;DHT22;5906;51.660;6.674;2023-02-17T04:06:22;10.70;99.90
11700;DHT22;5906;51.660;6.674;2023-02-17T04:08:49;10.70;99.90
11700;DHT22;5906;51.660;6.674;2023-02-17T04:11:16;10.70;99.90
11700;DHT22;5906;51.660;6.674;2023-02-17T04:13:43;10.70;99.90
11700;DHT22;5906;51.660;6.674;2023-02-17T04:16:10;10.70;99.90
11700;DHT22;5906;51.660;6.674;2023-02-17T04:18:37;10.70;99.90
11700;DHT22;5906;51.660;6.674;2023-02-17T04:21:05;10.70;99.90
11700;DHT22;5906;51.660;6.674;2023-02-17T04:23:34;10.70;99.90
11700;DHT22;5906;51.660;6.674;2023-02-17T04:26:06;10.70;99.90
11700;DHT22;5906;51.660;6.674;2023-02-17T04:28:36;10.70;99.90
11700;DHT22;5906;51.660;6.674;2023-02-17T04:31:04;10.80;99.90
11700;DHT22;5906;51.660;6.674;2023-02-17T04:33:31;10.80;99.90
11700;DHT22;5906;51.660;6.674;2023-02-17T04:35:58;10.70;99.90
11700;DHT22;5906;51.660;6.674;2023-02-17T04:38:30;10.80;99.90
11700;DHT22;5906;51.660;6.674;2023-02-17T04:40:58;10.80;99.90
11700;DHT22;5906;51.660;6.674;2023-02-17T04:43:26;10.80;99.90
11700;DHT22;5906;51.660;6.674;2023-02-17T04:45:54;10.80;99.90
11700;DHT22;5906;51.660;6.674;2023-02-17T04:48:21;10.80;99.90
11700;DHT22;5906;51.660;6.674;2023-02-17T04:50:48;10.80;99.90
11700;DHT22;5906;51.660;6.674;2023-02-17T04:53:14;10.80;99.90
11700;DHT22;5906;51.660;6.674;2023-02-17T04:55:42;10.80;99.90
11700;DHT22;5906;51.660;6.674;2023-02-17T04:58:09;10.80;99.90
11700;DHT22;5906;51.660;6.674;2023-02-17T05:00:36;10.80;99.90
11700;DHT22;5906;51.660;6.674;2023-02-17T05:03:03;10.90;99.90
11700;DHT22;5906;51.660;6.674;2023-02-17T05:05:30;10.90;99.90
11700;DHT22;5906;51.660;6.674;2023-02-17T05:07:57;10.90;99.90
11700;DHT22;5906;51.660;6.674;2023-02-17T05:10:24;10.90;99.90
11700;DHT22;5906;51.660;6.674;2023-02-17T05:12:50;10.90;99.90
11700;DHT22;5906;51.660;6.674;2023-02-17T05:15:18;10.90;99.90
11700;DHT22;5906;51.660;6.674;2023-02-17T05:17:47;10.90;99.90
11700;DHT22;5906;51.660;6.674;2023-02-17T05:20:14;10.90;99.90
11700;DHT22;5906;51.660;6.674;2023-02-17T05:22:41;10.90;99.90
11700;DHT22;5906;51.660;6.674;2023-02-17T05:25:07;10.90;99.90
11700;DHT22;5906;51.660;6.674;2023-02-17T05:27:34;10.90;99.90
11700;DHT22;5906;51.660;6.674;2023-02-17T05:30:02;10.90;99.90
11700;DHT22;5906;51.660;6.674;2023-02-17T05:32:29;11.00;99.90
11700;DHT22;5906;51.660;6.674;2023-02-17T05:34:56;11.00;99.90
11700;DHT22;5906;51.660;6.674;2023-02-17T05:37:22;11.00;99.90
11700;DHT22;5906;51.660;6.674;2023-02-17T05:39:49;11.00;99.90
11700;DHT22;5906;51.660;6.674;2023-02-17T05:42:16;11.00;99.90
11700;DHT22;5906;51.660;6.674;2023-02-17T05:44:43;11.00;99.90
11700;DHT22;5906;51.660;6.674;2023-02-17T05:47:10;11.00;99.90
11700;DHT22;5906;51.660;6.674;2023-02-17T05:49:36;11.00;99.90
11700;DHT22;5906;51.660;6.674;2023-02-17T05:52:03;11.00;99.90
11700;DHT22;5906;51.660;6.674;2023-02-17T05:54:30;11.00;99.90
11700;DHT22;5906;51.660;6.674;2023-02-17T05:56:57;11.00;99.90
11700;DHT22;5906;51.660;6.674;2023-02-17T05:59:24;11.00;99.90
11700;DHT22;5906;51.660;6.674;2023-02-17T06:01:50;11.00;99.90
11700;DHT22;5906;51.660;6.674;2023-02-17T06:04:18;11.00;99.90
11700;DHT22;5906;51.660;6.674;2023-02-17T06:06:45;11.00;99.90
11700;DHT22;5906;51.660;6.674;2023-02-17T06:09:12;11.00;99.90
11700;DHT22;5906;51.660;6.674;2023-02-17T06:11:38;11.00;99.90
11700;DHT22;5906;51.660;6.674;2023-02-17T06:14:05;11.00;99.90
11700;DHT22;5906;51.660;6.674;2023-02-17T06:16:32;11.00;99.90
11700;DHT22;5906;51.660;6.674;2023-02-17T06:18:59;11.10;99.90
11700;DHT22;5906;51.660;6.674;2023-02-17T06:21:27;11.00;99.90
11700;DHT22;5906;51.660;6.674;2023-02-17T06:23:54;11.00;99.90
11700;DHT22;5906;51.660;6.674;2023-02-17T06:26:21;11.00;99.90
11700;DHT22;5906;51.660;6.674;2023-02-17T06:28:49;10.90;99.90
11700;DHT22;5906;51.660;6.674;2023-02-17T06:31:15;10.90;99.90
11700;DHT22;5906;51.660;6.674;2023-02-17T06:33:42;10.90;99.90
11700;DHT22;5906;51.660;6.674;2023-02-17T06:36:09;10.90;99.90
11700;DHT22;5906;51.660;6.674;2023-02-17T06:38:36;10.90;99.90
11700;DHT22;5906;51.660;6.674;2023-02-17T06:41:03;10.90;99.90
11700;DHT22;5906;51.660;6.674;2023-02-17T06:43:30;10.90;99.90
11700;DHT22;5906;51.660;6.674;2023-02-17T06:45:56;10.90;99.90
11700;DHT22;5906;51.660;6.674;2023-02-17T06:48:23;10.80;99.90
11700;DHT22;5906;51.660;6.674;2023-02-17T06:50:50;10.80;99.90
11700;DHT22;5906;51.660;6.674;2023-02-17T06:53:18;10.80;99.90
11700;DHT22;5906;51.660;6.674;2023-02-17T06:55:45;10.80;99.90
11700;DHT22;5906;51.660;6.674;2023-02-17T06:58:11;10.80;99.90
11700;DHT22;5906;51.660;6.674;2023-02-17T07:00:38;10.80;99.90
11700;DHT22;5906;51.660;6.674;2023-02-17T07:03:05;10.80;99.90
11700;DHT22;5906;51.660;6.674;2023-02-17T07:05:36;10.70;99.90
11700;DHT22;5906;51.660;6.674;2023-02-17T07:08:03;10.80;99.90
11700;DHT22;5906;51.660;6.674;2023-02-17T07:10:30;10.80;99.90
11700;DHT22;5906;51.660;6.674;2023-02-17T07:12:58;10.80;99.90
11700;DHT22;5906;51.660;6.674;2023-02-17T07:15:24;10.90;99.90
11700;DHT22;5906;51.660;6.674;2023-02-17T07:17:54;10.80;99.90
11700;DHT22;5906;51.660;6.674;2023-02-17T07:20:20;10.80;99.90
11700;DHT22;5906;51.660;6.674;2023-02-17T07:22:47;10.90;99.90
11700;DHT22;5906;51.660;6.674;2023-02-17T07:25:14;10.90;99.90
11700;DHT22;5906;51.660;6.674;2023-02-17T07:27:41;10.90;99.90
11700;DHT22;5906;51.660;6.674;2023-02-17T07:30:08;10.90;99.90
11700;DHT22;5906;51.660;6.674;2023-02-17T07:32:35;10.90;99.90
11700;DHT22;5906;51.660;6.674;2023-02-17T07:35:02;10.90;99.90
11700;DHT22;5906;51.660;6.674;2023-02-17T07:37:29;10.90;99.90
11700;DHT22;5906;51.660;6.674;2023-02-17T07:39:56;10.90;99.90
11700;DHT22;5906;51.660;6.674;2023-02-17T07:42:23;10.90;99.90
11700;DHT22;5906;51.660;6.674;2023-02-17T07:44:49;11.00;99.90
11700;DHT22;5906;51.660;6.674;2023-02-17T07:47:16;11.00;99.90
11700;DHT22;5906;51.660;6.674;2023-02-17T07:49:43;11.00;99.90
11700;DHT22;5906;51.660;6.674;2023-02-17T07:52:10;11.00;99.90
11700;DHT22;5906;51.660;6.674;2023-02-17T07:54:37;11.00;99.90
11700;DHT22;5906;51.660;6.674;2023-02-17T07:57:03;11.00;99.90
11700;DHT22;5906;51.660;6.674;2023-02-17T07:59:30;11.00;99.90
11700;DHT22;5906;51.660;6.674;2023-02-17T08:01:57;11.00;99.90
11700;DHT22;5906;51.660;6.674;2023-02-17T08:04:24;11.10;99.90
11700;DHT22;5906;51.660;6.674;2023-02-17T08:06:51;11.10;99.90
11700;DHT22;5906;51.660;6.674;2023-02-17T08:09:18;11.10;99.90
11700;DHT22;5906;51.660;6.674;2023-02-17T08:12:05;11.20;99.90
11700;DHT22;5906;51.660;6.674;2023-02-17T08:14:50;11.20;99.90
11700;DHT22;5906;51.660;6.674;2023-02-17T08:17:16;11.20;99.90
11700;DHT22;5906;51.660;6.674;2023-02-17T08:19:43;11.20;99.90
11700;DHT22;5906;51.660;6.674;2023-02-17T08:22:17;11.20;99.90
11700;DHT22;5906;51.660;6.674;2023-02-17T08:24:44;11.30;99.90
11700;DHT22;5906;51.660;6.674;2023-02-17T08:27:13;11.30;99.90
11700;DHT22;5906;51.660;6.674;2023-02-17T08:29:40;11.30;99.90
11700;DHT22;5906;51.660;6.674;2023-02-17T08:32:07;11.40;99.90
11700;DHT22;5906;51.660;6.674;2023-02-17T08:34:34;11.40;99.90
11700;DHT22;5906;51.660;6.674;2023-02-17T08:37:04;11.50;99.90
11700;DHT22;5906;51.660;6.674;2023-02-17T08:39:32;11.50;99.90
11700;DHT22;5906;51.660;6.674;2023-02-17T08:42:00;11.50;99.90
11700;DHT22;5906;51.660;6.674;2023-02-17T08:44:27;11.60;99.90
11700;DHT22;5906;51.660;6.674;2023-02-17T08:46:54;11.60;99.90
11700;DHT22;5906;51.660;6.674;2023-02-17T08:49:23;11.60;99.90
11700;DHT22;5906;51.660;6.674;2023-02-17T08:51:51;11.60;99.90
11700;DHT22;5906;51.660;6.674;2023-02-17T08:54:18;11.60;99.90
11700;DHT22;5906;51.660;6.674;2023-02-17T08:56:44;11.60;99.90
11700;DHT22;5906;51.660;6.674;2023-02-17T08:59:12;11.70;99.90
11700;DHT22;5906;51.660;6.674;2023-02-17T09:01:39;11.70;99.90
11700;DHT22;5906;51.660;6.674;2023-02-17T09:04:08;11.80;99.90
11700;DHT22;5906;51.660;6.674;2023-02-17T09:06:41;11.90;99.90
11700;DHT22;5906;51.660;6.674;2023-02-17T09:09:14;11.90;99.90
11700;DHT22;5906;51.660;6.674;2023-02-17T09:11:41;12.00;99.90
11700;DHT22;5906;51.660;6.674;2023-02-17T09:14:08;12.00;99.90
11700;DHT22;5906;51.660;6.674;2023-02-17T09:16:35;12.00;99.90
11700;DHT22;5906;51.660;6.674;2023-02-17T09:19:03;12.10;99.90
11700;DHT22;5906;51.660;6.674;2023-02-17T09:21:31;12.20;99.90
11700;DHT22;5906;51.660;6.674;2023-02-17T09:23:57;12.30;99.90
11700;DHT22;5906;51.660;6.674;2023-02-17T09:26:24;12.30;99.90
11700;DHT22;5906;51.660;6.674;2023-02-17T09:28:51;12.30;99.90
11700;DHT22;5906;51.660;6.674;2023-02-17T09:31:20;12.30;99.90
11700;DHT22;5906;51.660;6.674;2023-02-17T09:33:48;12.30;99.90
11700;DHT22;5906;51.660;6.674;2023-02-17T09:36:18;12.40;99.90
11700;DHT22;5906;51.660;6.674;2023-02-17T09:38:45;12.40;99.90
11700;DHT22;5906;51.660;6.674;2023-02-17T09:41:23;12.40;99.90
11700;DHT22;5906;51.660;6.674;2023-02-17T09:43:52;12.50;99.90
11700;DHT22;5906;51.660;6.674;2023-02-17T09:46:25;12.50;99.90
11700;DHT22;5906;51.660;6.674;2023-02-17T09:48:58;12.60;99.90
11700;DHT22;5906;51.660;6.674;2023-02-17T09:51:36;12.60;99.90
11700;DHT22;5906;51.660;6.674;2023-02-17T09:56:40;12.60;99.90
11700;DHT22;5906;51.660;6.674;2023-02-17T10:01:46;12.60;99.90
11700;DHT22;5906;51.660;6.674;2023-02-17T10:04:32;12.60;99.90
11700;DHT22;5906;51.660;6.674;2023-02-17T10:07:27;12.60;99.90
11700;DHT22;5906;51.660;6.674;2023-02-17T10:10:21;12.60;99.90
11700;DHT22;5906;51.660;6.674;2023-02-17T10:12:54;12.60;99.90
11700;DHT22;5906;51.660;6.674;2023-02-17T10:15:25;12.60;99.90
11700;DHT22;5906;51.660;6.674;2023-02-17T10:18:10;12.60;99.90
11700;DHT22;5906;51.660;6.674;2023-02-17T10:23:17;12.70;99.90
11700;DHT22;5906;51.660;6.674;2023-02-17T10:31:06;12.80;99.90
11700;DHT22;5906;51.660;6.674;2023-02-17T10:33:54;12.90;99.90
11700;DHT22;5906;51.660;6.674;2023-02-17T10:41:50;13.10;99.90
11700;DHT22;5906;51.660;6.674;2023-02-17T10:44:22;13.10;99.90
11700;DHT22;5906;51.660;6.674;2023-02-17T10:46:52;13.10;99.90
11700;DHT22;5906;51.660;6.674;2023-02-17T10:49:32;13.10;99.90
11700;DHT22;5906;51.660;6.674;2023-02-17T10:52:09;13.10;99.90
11700;DHT22;5906;51.660;6.674;2023-02-17T10:57:20;13.10;99.90
11700;DHT22;5906;51.660;6.674;2023-02-17T10:59:49;13.20;99.90
11700;DHT22;5906;51.660;6.674;2023-02-17T11:02:24;13.20;99.90
11700;DHT22;5906;51.660;6.674;2023-02-17T11:04:53;13.30;99.90
11700;DHT22;5906;51.660;6.674;2023-02-17T11:07:38;13.50;99.90
11700;DHT22;5906;51.660;6.674;2023-02-17T11:10:39;13.60;99.90
11700;DHT22;5906;51.660;6.674;2023-02-17T11:13:33;13.70;99.90
11700;DHT22;5906;51.660;6.674;2023-02-17T11:16:00;13.90;99.90
11700;DHT22;5906;51.660;6.674;2023-02-17T11:18:31;13.90;99.90
11700;DHT22;5906;51.660;6.674;2023-02-17T11:21:08;13.90;99.90
11700;DHT22;5906;51.660;6.674;2023-02-17T11:23:50;13.90;99.90
11700;DHT22;5906;51.660;6.674;2023-02-17T11:26:27;13.90;99.90
11700;DHT22;5906;51.660;6.674;2023-02-17T11:28:54;13.80;99.90
11700;DHT22;5906;51.660;6.674;2023-02-17T11:31:30;13.70;99.90
11700;DHT22;5906;51.660;6.674;2023-02-17T11:33:57;13.70;99.90
11700;DHT22;5906;51.660;6.674;2023-02-17T11:36:29;13.60;99.90
11700;DHT22;5906;51.660;6.674;2023-02-17T11:38:57;13.60;99.90
11700;DHT22;5906;51.660;6.674;2023-02-17T11:41:26;13.50;99.90
11700;DHT22;5906;51.660;6.674;2023-02-17T11:43:57;13.50;99.90
11700;DHT22;5906;51.660;6.674;2023-02-17T12:14:44;13.90;99.90
11700;DHT22;5906;51.660;6.674;2023-02-17T12:25:30;13.90;99.90
11700;DHT22;5906;51.660;6.674;2023-02-17T12:36:01;13.80;99.90
11700;DHT22;5906;51.660;6.674;2023-02-17T12:38:32;13.70;99.90
11700;DHT22;5906;51.660;6.674;2023-02-17T12:41:01;13.70;99.90
11700;DHT22;5906;51.660;6.674;2023-02-17T12:43:46;13.70;99.90
11700;DHT22;5906;51.660;6.674;2023-02-17T12:46:18;13.70;99.90
11700;DHT22;5906;51.660;6.674;2023-02-17T12:48:51;13.70;99.90
11700;DHT22;5906;51.660;6.674;2023-02-17T12:51:26;13.70;99.90
11700;DHT22;5906;51.660;6.674;2023-02-17T12:58:54;13.80;99.90
11700;DHT22;5906;51.660;6.674;2023-02-17T13:01:24;13.80;99.90
11700;DHT22;5906;51.660;6.674;2023-02-17T13:03:52;13.80;99.90
11700;DHT22;5906;51.660;6.674;2023-02-17T13:08:57;13.80;99.90
11700;DHT22;5906;51.660;6.674;2023-02-17T13:13:53;13.90;99.90
11700;DHT22;5906;51.660;6.674;2023-02-17T13:16:20;13.90;99.90
11700;DHT22;5906;51.660;6.674;2023-02-17T13:18:50;13.90;99.90
11700;DHT22;5906;51.660;6.674;2023-02-17T13:24:12;13.80;99.90
11700;DHT22;5906;51.660;6.674;2023-02-17T13:26:43;13.70;99.90
11700;DHT22;5906;51.660;6.674;2023-02-17T13:31:54;13.70;99.90
11700;DHT22;5906;51.660;6.674;2023-02-17T13:36:55;13.60;99.90
11700;DHT22;5906;51.660;6.674;2023-02-17T13:41:57;13.60;99.90
11700;DHT22;5906;51.660;6.674;2023-02-17T13:44:28;13.60;99.90
11700;DHT22;5906;51.660;6.674;2023-02-17T13:47:06;13.60;99.90
11700;DHT22;5906;51.660;6.674;2023-02-17T13:49:38;13.50;99.90
11700;DHT22;5906;51.660;6.674;2023-02-17T13:52:07;13.50;99.90
11700;DHT22;5906;51.660;6.674;2023-02-17T13:54:34;13.50;99.90
11700;DHT22;5906;51.660;6.674;2023-02-17T13:57:01;13.40;99.90
11700;DHT22;5906;51.660;6.674;2023-02-17T13:59:28;13.40;99.90
11700;DHT22;5906;51.660;6.674;2023-02-17T14:01:55;13.40;99.90
11700;DHT22;5906;51.660;6.674;2023-02-17T14:04:27;13.40;99.90
11700;DHT22;5906;51.660;6.674;2023-02-17T14:06:58;13.30;99.90
11700;DHT22;5906;51.660;6.674;2023-02-17T14:09:30;13.20;99.90
11700;DHT22;5906;51.660;6.674;2023-02-17T14:12:01;13.10;99.90
11700;DHT22;5906;51.660;6.674;2023-02-17T14:14:31;13.00;99.90
11700;DHT22;5906;51.660;6.674;2023-02-17T14:19:44;12.90;99.90
11700;DHT22;5906;51.660;6.674;2023-02-17T14:22:35;12.80;99.90
11700;DHT22;5906;51.660;6.674;2023-02-17T14:25:14;12.70;99.90
11700;DHT22;5906;51.660;6.674;2023-02-17T14:27:51;12.70;99.90
11700;DHT22;5906;51.660;6.674;2023-02-17T14:35:35;12.50;99.90
11700;DHT22;5906;51.660;6.674;2023-02-17T14:38:17;12.50;99.90
11700;DHT22;5906;51.660;6.674;2023-02-17T14:40:46;12.50;99.90
11700;DHT22;5906;51.660;6.674;2023-02-17T14:43:13;12.50;99.90
11700;DHT22;5906;51.660;6.674;2023-02-17T14:45:41;12.50;99.90
11700;DHT22;5906;51.660;6.674;2023-02-17T14:48:08;12.50;99.90
11700;DHT22;5906;51.660;6.674;2023-02-17T14:50:35;12.40;99.90
11700;DHT22;5906;51.660;6.674;2023-02-17T14:55:58;12.30;99.90
11700;DHT22;5906;51.660;6.674;2023-02-17T14:58:27;12.30;99.90
11700;DHT22;5906;51.660;6.674;2023-02-17T15:00:55;12.20;99.90
11700;DHT22;5906;51.660;6.674;2023-02-17T15:03:22;12.20;99.90
11700;DHT22;5906;51.660;6.674;2023-02-17T15:05:50;12.20;99.90
11700;DHT22;5906;51.660;6.674;2023-02-17T15:08:19;12.20;99.90
11700;DHT22;5906;51.660;6.674;2023-02-17T15:10:49;12.30;99.90
11700;DHT22;5906;51.660;6.674;2023-02-17T15:13:19;12.40;99.90
11700;DHT22;5906;51.660;6.674;2023-02-17T15:15:47;12.40;99.90
11700;DHT22;5906;51.660;6.674;2023-02-17T15:18:17;12.40;99.90
11700;DHT22;5906;51.660;6.674;2023-02-17T15:20:46;12.50;99.90
11700;DHT22;5906;51.660;6.674;2023-02-17T15:23:19;12.50;99.90
11700;DHT22;5906;51.660;6.674;2023-02-17T15:25:47;12.50;99.90
11700;DHT22;5906;51.660;6.674;2023-02-17T15:28:16;12.50;99.90
11700;DHT22;5906;51.660;6.674;2023-02-17T15:30:50;12.60;99.90
11700;DHT22;5906;51.660;6.674;2023-02-17T15:33:19;12.60;99.90
11700;DHT22;5906;51.660;6.674;2023-02-17T15:35:49;12.60;99.90
11700;DHT22;5906;51.660;6.674;2023-02-17T15:38:19;12.60;99.90
11700;DHT22;5906;51.660;6.674;2023-02-17T15:40:47;12.60;99.90
11700;DHT22;5906;51.660;6.674;2023-02-17T15:43:19;12.60;99.90
11700;DHT22;5906;51.660;6.674;2023-02-17T15:45:47;12.60;99.90
11700;DHT22;5906;51.660;6.674;2023-02-17T15:48:22;12.60;99.90
11700;DHT22;5906;51.660;6.674;2023-02-17T15:50:50;12.60;99.90
11700;DHT22;5906;51.660;6.674;2023-02-17T15:53:18;12.60;99.90
11700;DHT22;5906;51.660;6.674;2023-02-17T15:55:45;12.60;99.90
11700;DHT22;5906;51.660;6.674;2023-02-17T15:58:16;12.60;99.90
11700;DHT22;5906;51.660;6.674;2023-02-17T16:00:44;12.60;99.90
11700;DHT22;5906;51.660;6.674;2023-02-17T16:03:12;12.70;99.90
11700;DHT22;5906;51.660;6.674;2023-02-17T16:05:41;12.60;99.90
11700;DHT22;5906;51.660;6.674;2023-02-17T16:08:08;12.60;99.90
11700;DHT22;5906;51.660;6.674;2023-02-17T16:10:35;12.60;99.90
11700;DHT22;5906;51.660;6.674;2023-02-17T16:13:02;12.60;99.90
11700;DHT22;5906;51.660;6.674;2023-02-17T16:15:31;12.60;99.90
11700;DHT22;5906;51.660;6.674;2023-02-17T16:17:58;12.60;99.90
11700;DHT22;5906;51.660;6.674;2023-02-17T16:20:28;12.60;99.90
11700;DHT22;5906;51.660;6.674;2023-02-17T16:22:56;12.60;99.90
11700;DHT22;5906;51.660;6.674;2023-02-17T16:25:23;12.60;99.90
11700;DHT22;5906;51.660;6.674;2023-02-17T16:27:51;12.70;99.90
11700;DHT22;5906;51.660;6.674;2023-02-17T16:30:32;12.70;99.90
11700;DHT22;5906;51.660;6.674;2023-02-17T16:33:00;12.70;99.90
11700;DHT22;5906;51.660;6.674;2023-02-17T16:35:30;12.70;99.90
11700;DHT22;5906;51.660;6.674;2023-02-17T16:38:04;12.70;99.90
11700;DHT22;5906;51.660;6.674;2023-02-17T16:40:34;12.70;99.90
11700;DHT22;5906;51.660;6.674;2023-02-17T16:43:02;12.70;99.90
11700;DHT22;5906;51.660;6.674;2023-02-17T16:45:31;12.70;99.90
11700;DHT22;5906;51.660;6.674;2023-02-17T16:47:59;12.70;99.90
11700;DHT22;5906;51.660;6.674;2023-02-17T16:50:32;12.60;99.90
11700;DHT22;5906;51.660;6.674;2023-02-17T16:53:05;12.70;99.90
11700;DHT22;5906;51.660;6.674;2023-02-17T16:55:35;12.70;99.90
11700;DHT22;5906;51.660;6.674;2023-02-17T16:58:08;12.70;99.90
11700;DHT22;5906;51.660;6.674;2023-02-17T17:00:39;12.70;99.90
11700;DHT22;5906;51.660;6.674;2023-02-17T17:03:06;12.70;99.90
11700;DHT22;5906;51.660;6.674;2023-02-17T17:05:33;12.70;99.90
11700;DHT22;5906;51.660;6.674;2023-02-17T17:08:01;12.70;99.90
11700;DHT22;5906;51.660;6.674;2023-02-17T17:10:30;12.70;99.90
11700;DHT22;5906;51.660;6.674;2023-02-17T17:12:59;12.60;99.90
11700;DHT22;5906;51.660;6.674;2023-02-17T17:15:26;12.60;99.90
11700;DHT22;5906;51.660;6.674;2023-02-17T17:18:05;12.70;99.90
11700;DHT22;5906;51.660;6.674;2023-02-17T17:20:37;12.70;99.90
11700;DHT22;5906;51.660;6.674;2023-02-17T17:23:12;12.60;99.90
11700;DHT22;5906;51.660;6.674;2023-02-17T17:25:43;12.70;99.90
11700;DHT22;5906;51.660;6.674;2023-02-17T17:28:14;12.60;99.90
11700;DHT22;5906;51.660;6.674;2023-02-17T17:30:41;12.60;99.90
11700;DHT22;5906;51.660;6.674;2023-02-17T17:33:08;12.60;99.90
11700;DHT22;5906;51.660;6.674;2023-02-17T17:35:35;12.60;99.90
11700;DHT22;5906;51.660;6.674;2023-02-17T17:38:03;12.60;99.90
11700;DHT22;5906;51.660;6.674;2023-02-17T17:40:34;12.60;99.90
11700;DHT22;5906;51.660;6.674;2023-02-17T17:43:15;12.60;99.90
11700;DHT22;5906;51.660;6.674;2023-02-17T17:45:42;12.70;99.90
11700;DHT22;5906;51.660;6.674;2023-02-17T17:48:12;12.60;99.90
11700;DHT22;5906;51.660;6.674;2023-02-17T17:50:40;12.60;99.90
11700;DHT22;5906;51.660;6.674;2023-02-17T17:53:07;12.60;99.90
11700;DHT22;5906;51.660;6.674;2023-02-17T17:55:34;12.50;99.90
11700;DHT22;5906;51.660;6.674;2023-02-17T17:58:01;12.60;99.90
11700;DHT22;5906;51.660;6.674;2023-02-17T18:00:28;12.50;99.90
11700;DHT22;5906;51.660;6.674;2023-02-17T18:02:55;12.50;99.90
11700;DHT22;5906;51.660;6.674;2023-02-17T18:05:22;12.40;99.90
11700;DHT22;5906;51.660;6.674;2023-02-17T18:07:49;12.40;99.90
11700;DHT22;5906;51.660;6.674;2023-02-17T18:10:17;12.40;99.90
11700;DHT22;5906;51.660;6.674;2023-02-17T18:12:44;12.40;99.90